Time;durP1;ratioP1;P1;durP2;ratioP2;P2;SDS_P1;SDS_P2;PMS_P1;PMS_P2;Temp;Humidity;BMP_temperature;BMP_pressure;BME280_temperature;BME280_humidity;BME280_pressure;Samples;Min_cycle;Max_cycle;Signal;HPM_P1;HPM_P2
2022/01/20 00:03:34;;;;;;;26.20;4.78;;;;;;;2.94;89.47;102390.97;5063358;28;20035;-90
2022/01/20 00:27:31;;;;;;;16.73;3.13;;;;;;;2.80;89.56;102402.06;5099337;28;20088;-90
2022/01/20 00:30:33;;;;;;;29.52;3.28;;;;;;;2.79;89.54;102404.63;5102483;28;20052;-91
2022/01/20 00:32:55;;;;;;;27.05;3.85;;;;;;;2.85;89.51;102424.75;5099261;28;20024;-90
2022/01/20 00:35:23;;;;;;;19.42;3.28;;;;;;;3.02;89.50;102436.34;5079857;28;20066;-91
2022/01/20 00:37:49;;;;;;;13.20;2.92;;;;;;;3.17;89.44;102420.94;5097694;28;20456;-90
2022/01/20 00:40:14;;;;;;;16.38;3.08;;;;;;;3.42;89.45;102429.16;5080868;28;20028;-90
2022/01/20 00:42:40;;;;;;;26.40;4.07;;;;;;;3.47;89.62;102410.06;5096797;28;20047;-90
2022/01/20 00:45:06;;;;;;;15.70;2.75;;;;;;;3.46;89.14;102420.50;5097589;28;20027;-92
2022/01/20 00:47:31;;;;;;;22.92;2.95;;;;;;;3.41;89.04;102407.38;5080206;28;20440;-90
2022/01/20 00:49:57;;;;;;;18.98;2.53;;;;;;;3.45;89.32;102411.78;5098375;28;20046;-91
2022/01/20 00:52:23;;;;;;;19.40;3.42;;;;;;;3.39;89.49;102409.06;5081252;28;20500;-91
2022/01/20 00:54:48;;;;;;;22.70;3.05;;;;;;;3.32;89.55;102387.19;5079869;28;20050;-91
2022/01/20 00:57:14;;;;;;;25.23;2.97;;;;;;;3.46;89.32;102410.91;5078251;28;20567;-92
2022/01/20 00:59:40;;;;;;;20.63;3.35;;;;;;;3.47;89.28;102410.06;5096295;28;20020;-91
2022/01/20 01:02:08;;;;;;;23.30;3.00;;;;;;;3.57;89.20;102424.13;5079360;28;20023;-92
2022/01/20 01:04:34;;;;;;;33.58;3.75;;;;;;;3.62;89.44;102432.03;5100557;28;20031;-91
2022/01/20 01:07:27;;;;;;;18.20;3.05;;;;;;;3.56;89.30;102418.03;5103383;28;20027;-91
2022/01/20 01:09:52;;;;;;;17.38;3.97;;;;;;;3.72;89.33;102428.69;5085333;28;20386;-90
2022/01/20 01:12:28;;;;;;;21.92;2.88;;;;;;;3.74;88.93;102427.88;5083526;28;20023;-92
2022/01/20 01:14:54;;;;;;;25.52;3.60;;;;;;;3.67;89.03;102420.78;5101539;28;20073;-91
2022/01/20 01:20:30;;;;;;;17.73;2.60;;;;;;;3.59;89.02;102432.91;5100641;28;20028;-90
2022/01/20 01:22:34;;;;;;;17.52;2.83;;;;;;;3.50;88.77;102433.63;5086137;28;20589;-92
2022/01/20 01:25:01;;;;;;;22.52;2.92;;;;;;;3.45;89.06;102439.63;5082925;28;20031;-92
2022/01/20 01:27:29;;;;;;;18.27;3.00;;;;;;;3.36;89.04;102429.94;5084576;28;20454;-91
2022/01/20 01:32:24;;;;;;;18.27;3.17;;;;;;;3.19;89.28;102427.06;5103190;28;20411;-92
2022/01/20 01:34:52;;;;;;;17.05;2.88;;;;;;;3.15;89.33;102427.00;5099957;28;20028;-91
2022/01/20 01:40:07;;;;;;;21.25;3.42;;;;;;;3.13;89.32;102441.78;5102374;28;20131;-92
2022/01/20 01:42:42;;;;;;;17.23;3.28;;;;;;;3.07;89.34;102429.47;5090771;28;20146;-92
2022/01/20 01:45:29;;;;;;;17.90;2.50;;;;;;;3.14;89.56;102446.13;5084359;28;20028;-92
2022/01/20 01:47:56;;;;;;;21.20;2.97;;;;;;;3.23;89.74;102443.69;5088726;28;20043;-91
2022/01/20 01:50:22;;;;;;;7.93;1.55;;;;;;;3.29;89.33;102444.63;5088327;28;20034;-92
2022/01/20 01:52:48;;;;;;;11.13;2.08;;;;;;;3.26;89.01;102438.47;5092240;28;20429;-91
2022/01/20 01:55:14;;;;;;;11.57;2.38;;;;;;;3.20;88.99;102435.78;5103137;28;20081;-91
2022/01/20 01:57:40;;;;;;;15.13;2.47;;;;;;;3.14;89.30;102439.19;5079984;28;20088;-93
2022/01/20 02:00:08;;;;;;;17.85;2.53;;;;;;;3.13;89.17;102437.44;5080409;28;20023;-91
2022/01/20 02:02:34;;;;;;;11.57;2.08;;;;;;;3.09;89.45;102437.34;5087034;28;20051;-90
2022/01/20 02:05:03;;;;;;;14.23;2.28;;;;;;;3.14;89.56;102446.13;5085312;28;20055;-91
2022/01/20 02:18:36;;;;;;;20.25;2.95;;;;;;;3.34;89.72;102429.03;5103522;28;20123;-91
2022/01/20 02:21:02;;;;;;;10.98;2.72;;;;;;;3.46;89.36;102447.53;5104292;28;20020;-91
2022/01/20 02:23:27;;;;;;;15.23;2.42;;;;;;;3.48;89.84;102451.03;5100863;28;20382;-91
2022/01/20 02:25:53;;;;;;;19.25;2.60;;;;;;;3.67;89.35;102464.38;5102002;28;20028;-91
2022/01/20 02:28:19;;;;;;;9.25;2.13;;;;;;;3.70;88.74;102448.72;5083791;28;20510;-91
2022/01/20 02:30:44;;;;;;;11.88;2.03;;;;;;;3.76;88.35;102454.03;5088674;28;20030;-91
2022/01/20 02:33:16;;;;;;;8.55;1.60;;;;;;;3.80;88.26;102453.22;5082771;28;20023;-92
2022/01/20 02:35:46;;;;;;;;;;;;;;;3.98;87.51;102457.84;5086731;28;20573;-92
2022/01/20 02:38:21;;;;;;;13.68;1.80;;;;;;;3.84;88.22;102442.81;5085684;28;20413;-91
2022/01/20 02:46:14;;;;;;;7.28;1.90;;;;;;;3.89;88.34;102427.19;5099219;28;20076;-92
2022/01/20 02:48:40;;;;;;;12.65;1.60;;;;;;;3.89;88.75;102434.16;5082973;28;20035;-91
2022/01/20 02:51:05;;;;;;;13.82;2.25;;;;;;;3.93;88.48;102425.50;5088949;28;20023;-92
2022/01/20 02:53:31;;;;;;;8.85;1.70;;;;;;;3.89;88.27;102419.34;5087870;28;20015;-91
2022/01/20 02:55:56;;;;;;;11.20;1.13;;;;;;;3.92;88.35;102432.47;5084887;28;20020;-91
2022/01/20 02:58:21;;;;;;;8.02;1.70;;;;;;;3.85;88.54;102430.63;5086400;28;20022;-92
2022/01/20 03:00:48;;;;;;;10.52;1.33;;;;;;;3.81;88.59;102437.53;5088190;28;20027;-91
2022/01/20 03:03:13;;;;;;;11.25;1.48;;;;;;;3.87;88.44;102426.31;5087916;28;20134;-92
2022/01/20 03:05:39;;;;;;;7.38;1.13;;;;;;;3.89;87.90;102411.50;5087050;28;20069;-91
2022/01/20 03:08:04;;;;;;;9.77;1.50;;;;;;;3.93;88.10;102417.66;5087893;28;20035;-92
2022/01/20 03:10:30;;;;;;;14.18;1.92;;;;;;;3.85;88.29;102420.16;5087621;28;20024;-91
2022/01/20 03:12:56;;;;;;;5.90;1.48;;;;;;;3.78;88.61;102419.22;5082819;28;20382;-91
2022/01/20 03:15:22;;;;;;;8.65;1.80;;;;;;;3.71;88.71;102430.44;5090945;28;20069;-90
2022/01/20 03:17:48;;;;;;;5.45;1.17;;;;;;;3.68;88.64;102433.00;5086931;28;20496;-91
2022/01/20 03:20:13;;;;;;;9.18;1.98;;;;;;;3.67;88.83;102427.75;5081798;28;20035;-90
2022/01/20 03:22:39;;;;;;;13.52;2.08;;;;;;;3.60;88.97;102413.72;5106564;28;20031;-92
2022/01/20 03:25:04;;;;;;;12.43;1.80;;;;;;;3.62;89.32;102400.66;5089190;28;20023;-91
2022/01/20 03:27:30;;;;;;;7.18;1.65;;;;;;;3.50;89.13;102402.25;5080491;28;20027;-91
2022/01/20 03:29:55;;;;;;;10.20;1.80;;;;;;;3.43;89.22;102394.31;5084609;28;20034;-91
2022/01/20 03:32:20;;;;;;;11.57;1.63;;;;;;;3.43;89.05;102397.78;5083802;28;20035;-92
2022/01/20 03:34:46;;;;;;;10.48;1.77;;;;;;;3.45;89.24;102400.41;5102641;28;20493;-91
2022/01/20 03:37:11;;;;;;;7.55;1.58;;;;;;;3.49;88.87;102410.94;5106265;28;20027;-91
2022/01/20 03:39:37;;;;;;;14.57;2.35;;;;;;;3.50;89.34;102415.34;5084752;28;20027;-92
2022/01/20 03:42:02;;;;;;;14.43;1.63;;;;;;;3.63;88.83;102411.13;5085989;28;20284;-91
2022/01/20 03:44:28;;;;;;;12.50;1.73;;;;;;;3.78;88.69;102410.50;5100912;28;20518;-91
2022/01/20 03:46:53;;;;;;;8.13;1.35;;;;;;;3.76;88.42;102404.34;5087096;28;20028;-91
2022/01/20 03:49:36;;;;;;;14.25;1.95;;;;;;;3.74;88.28;102393.88;5080355;28;20038;-92
2022/01/20 03:52:01;;;;;;;9.90;1.40;;;;;;;3.76;88.09;102407.81;5088664;28;20027;-91
2022/01/20 03:54:27;;;;;;;4.20;1.75;;;;;;;3.83;88.18;102408.81;5082791;28;20024;-92
2022/01/20 03:56:52;;;;;;;7.80;2.10;;;;;;;3.66;88.19;102398.09;5104526;28;20545;-90
2022/01/20 03:59:18;;;;;;;11.60;1.90;;;;;;;3.63;88.25;102410.25;5087249;28;20034;-91
2022/01/20 04:01:43;;;;;;;13.45;2.20;;;;;;;3.66;88.51;102411.19;5100037;28;20084;-91
2022/01/20 04:04:09;;;;;;;7.22;1.77;;;;;;;3.70;88.36;102404.28;5096406;28;20051;-92
2022/01/20 04:06:34;;;;;;;8.68;1.45;;;;;;;3.66;88.26;102419.03;5087943;28;20486;-91
2022/01/20 04:08:59;;;;;;;12.38;1.98;;;;;;;3.54;88.18;102411.91;5084453;28;20425;-91
2022/01/20 04:11:27;;;;;;;8.00;1.52;;;;;;;3.35;88.35;102409.00;5104403;28;20055;-93
2022/01/20 04:13:54;;;;;;;11.10;1.40;;;;;;;3.45;88.71;102435.31;5076095;28;20027;-91
2022/01/20 04:16:38;;;;;;;6.97;1.45;;;;;;;3.54;88.73;102424.09;5084977;28;20034;-91
2022/01/20 04:19:08;;;;;;;11.20;2.03;;;;;;;3.73;88.33;102430.44;5086683;28;20031;-91
2022/01/20 04:21:35;;;;;;;13.13;2.10;;;;;;;3.75;88.19;102423.50;5105984;28;20031;-91
2022/01/20 04:24:02;;;;;;;12.18;1.95;;;;;;;3.85;87.93;102420.16;5086562;28;20036;-91
2022/01/20 04:26:29;;;;;;;9.90;1.95;;;;;;;3.93;88.13;102435.97;5086194;28;20101;-93
2022/01/20 04:28:56;;;;;;;14.10;2.65;;;;;;;3.89;88.21;102448.13;5101239;28;20597;-91
2022/01/20 04:31:26;;;;;;;8.05;1.80;;;;;;;4.00;87.54;102464.81;5082041;28;20033;-90
2022/01/20 04:33:51;;;;;;;9.70;1.30;;;;;;;4.12;87.90;102468.47;5086670;28;20588;-92
2022/01/20 04:36:17;;;;;;;9.35;1.88;;;;;;;4.06;88.10;102446.59;5081101;28;20031;-93
2022/01/20 04:38:43;;;;;;;6.88;1.30;;;;;;;4.13;87.42;102454.53;5085428;28;20027;-92
2022/01/20 04:41:09;;;;;;;18.00;2.78;;;;;;;4.08;87.28;102449.22;5087227;28;20035;-92
2022/01/20 04:43:34;;;;;;;7.45;1.55;;;;;;;4.02;87.62;102447.41;5088425;28;20190;-91
2022/01/20 04:46:10;;;;;;;8.68;1.45;;;;;;;4.05;87.37;102454.41;5102584;28;20038;-93
2022/01/20 04:49:00;;;;;;;12.27;1.83;;;;;;;3.98;87.82;102442.13;5096436;28;20429;-93
2022/01/20 04:59:26;;;;;;;;;;;;;;;4.01;86.91;102470.94;5103721;28;20190;-92
2022/01/20 05:01:51;;;;;;;10.40;2.28;;;;;;;3.90;87.71;102465.56;5084127;28;20379;-92
2022/01/20 05:04:17;;;;;;;9.00;2.03;;;;;;;3.84;88.15;102473.34;5102482;28;20874;-92
2022/01/20 05:06:44;;;;;;;9.75;1.30;;;;;;;4.00;87.52;102493.59;5085146;28;20095;-91
2022/01/20 05:09:17;;;;;;;13.07;1.40;;;;;;;3.95;87.88;102479.59;5085398;28;20032;-92
2022/01/20 05:11:46;;;;;;;6.50;0.88;;;;;;;3.98;87.42;102487.50;5087327;28;20038;-91
2022/01/20 05:14:11;;;;;;;12.35;1.98;;;;;;;4.05;86.98;102488.44;5085583;28;20027;-91
2022/01/20 05:16:37;;;;;;;8.70;1.30;;;;;;;4.05;87.30;102484.06;5085731;28;20479;-92
2022/01/20 05:19:02;;;;;;;11.27;1.88;;;;;;;4.05;87.37;102491.06;5087011;28;20475;-93
2022/01/20 05:21:27;;;;;;;7.18;1.38;;;;;;;4.13;87.36;102506.88;5086418;28;20437;-92
2022/01/20 05:23:52;;;;;;;12.82;1.85;;;;;;;4.14;87.46;102500.75;5084413;28;20440;-92
2022/01/20 05:26:18;;;;;;;13.13;2.00;;;;;;;4.17;87.35;102503.44;5082845;28;20047;-91
2022/01/20 05:28:43;;;;;;;11.93;1.80;;;;;;;4.14;87.83;102506.00;5091944;28;20031;-92
2022/01/20 05:31:08;;;;;;;11.60;1.73;;;;;;;4.15;88.00;102507.75;5084878;28;20041;-92
2022/01/20 05:33:34;;;;;;;14.32;2.22;;;;;;;4.16;87.85;102505.19;5085190;28;20114;-91
2022/01/20 05:35:59;;;;;;;12.88;1.40;;;;;;;4.18;88.08;102511.28;5100912;28;20433;-91
2022/01/20 05:38:24;;;;;;;10.80;1.75;;;;;;;4.17;87.79;102512.16;5082121;28;20028;-92
2022/01/20 05:40:50;;;;;;;10.45;2.05;;;;;;;4.24;87.64;102527.09;5081897;28;20061;-92
2022/01/20 05:43:16;;;;;;;10.63;1.40;;;;;;;4.27;87.82;102539.34;5103354;28;20047;-94
2022/01/20 05:45:41;;;;;;;10.55;1.33;;;;;;;4.25;87.45;102533.22;5085517;28;20051;-92
2022/01/20 05:48:13;;;;;;;9.93;1.77;;;;;;;4.23;87.83;102527.06;5086780;28;20028;-94
2022/01/20 05:50:39;;;;;;;19.83;2.03;;;;;;;4.22;87.80;102541.03;5106331;28;20028;-93
2022/01/20 05:53:05;;;;;;;11.05;1.88;;;;;;;4.22;88.50;102547.13;5103802;28;20027;-92
2022/01/20 05:55:31;;;;;;;15.15;2.63;;;;;;;4.24;88.57;102569.00;5091685;28;20539;-91
2022/01/20 05:57:57;;;;;;;12.82;2.08;;;;;;;4.21;88.47;102574.19;5088583;28;20015;-91
2022/01/20 06:00:24;;;;;;;10.05;1.85;;;;;;;4.24;88.58;102574.22;5108471;28;20579;-92
2022/01/20 06:05:34;;;;;;;11.45;2.47;;;;;;;4.11;87.80;102559.22;5108684;28;20074;-91
2022/01/20 06:08:00;;;;;;;13.23;2.20;;;;;;;4.04;87.75;102560.84;5107509;28;20028;-91
2022/01/20 06:10:26;;;;;;;11.50;2.22;;;;;;;3.97;87.86;102558.13;5105570;28;20024;-92
2022/01/20 06:12:51;;;;;;;17.02;2.65;;;;;;;3.96;87.90;102570.31;5087945;28;20473;-91
2022/01/20 06:15:16;;;;;;;16.45;1.67;;;;;;;3.99;87.49;102564.25;5088487;28;20136;-92
2022/01/20 06:17:42;;;;;;;8.65;1.70;;;;;;;4.08;87.50;102575.72;5091468;28;20035;-91
2022/01/20 06:20:09;;;;;;;13.45;1.80;;;;;;;4.07;87.25;102576.59;5085331;28;20028;-92
2022/01/20 06:22:34;;;;;;;14.00;1.67;;;;;;;4.06;87.60;102573.97;5108255;28;20031;-92
2022/01/20 06:25:00;;;;;;;11.45;2.10;;;;;;;4.08;87.25;102582.72;5084411;28;20028;-93
2022/01/20 06:27:25;;;;;;;10.38;1.70;;;;;;;4.14;87.20;102606.34;5107783;28;20069;-93
2022/01/20 06:29:50;;;;;;;23.38;2.90;;;;;;;4.09;87.16;102598.41;5087562;28;20039;-92
2022/01/20 06:32:16;;;;;;;11.63;1.88;;;;;;;4.05;87.34;102593.13;5083937;28;20038;-92
2022/01/20 06:34:41;;;;;;;21.92;3.05;;;;;;;4.03;86.89;102592.22;5083283;28;20098;-92
2022/01/20 06:37:06;;;;;;;9.23;2.20;;;;;;;4.21;85.87;102599.47;5099411;28;20035;-93
2022/01/20 06:39:32;;;;;;;11.88;2.38;;;;;;;4.15;86.10;102597.66;5077130;28;20478;-91
2022/01/20 06:41:57;;;;;;;9.18;1.92;;;;;;;4.07;85.80;102604.50;5087823;28;20032;-91
2022/01/20 06:44:23;;;;;;;21.95;3.83;;;;;;;4.09;85.68;102608.00;5106030;28;20044;-93
2022/01/20 06:46:49;;;;;;;19.25;2.58;;;;;;;4.11;85.76;102614.16;5086261;28;20031;-92
2022/01/20 06:49:17;;;;;;;19.02;2.38;;;;;;;4.04;84.96;102610.56;5080403;28;20028;-92
2022/01/20 06:51:44;;;;;;;18.05;2.13;;;;;;;4.03;85.33;102616.66;5089849;28;20212;-93
2022/01/20 06:54:09;;;;;;;17.48;2.15;;;;;;;4.03;84.68;102621.03;5105093;28;20303;-92
2022/01/20 06:56:34;;;;;;;15.43;1.63;;;;;;;4.06;84.81;102635.03;5087963;28;20466;-91
2022/01/20 06:59:00;;;;;;;9.55;1.90;;;;;;;4.06;84.26;102635.03;5086899;28;20114;-93
2022/01/20 07:01:25;;;;;;;10.52;1.75;;;;;;;4.06;83.50;102637.66;5084966;28;20606;-93
2022/01/20 07:03:51;;;;;;;12.30;1.83;;;;;;;4.08;83.27;102643.78;5086120;28;20020;-94
2022/01/20 07:06:16;;;;;;;9.05;2.20;;;;;;;4.06;83.54;102653.34;5089435;28;20037;-92
2022/01/20 07:08:41;;;;;;;20.48;3.55;;;;;;;4.01;83.54;102661.97;5107438;28;20027;-93
2022/01/20 07:11:07;;;;;;;10.98;2.25;;;;;;;3.97;83.38;102655.81;5102640;28;20027;-90
2022/01/20 07:13:32;;;;;;;13.05;2.47;;;;;;;3.99;83.48;102658.47;5103750;28;20038;-92
2022/01/20 07:15:57;;;;;;;26.52;2.85;;;;;;;3.95;83.37;102648.78;5084517;28;20069;-92
2022/01/20 07:18:23;;;;;;;14.00;2.28;;;;;;;4.00;82.23;102652.34;5101817;28;20042;-91
2022/01/20 07:20:48;;;;;;;19.65;3.22;;;;;;;3.87;82.23;102648.69;5104977;28;20035;-93
2022/01/20 07:23:13;;;;;;;16.50;2.58;;;;;;;3.82;82.59;102647.69;5087783;28;20061;-92
2022/01/20 07:25:38;;;;;;;12.70;2.30;;;;;;;3.80;82.55;102647.69;5087536;28;20241;-92
2022/01/20 07:28:04;;;;;;;15.27;3.03;;;;;;;3.83;81.36;102655.59;5087665;28;20423;-91
2022/01/20 07:30:29;;;;;;;11.18;1.65;;;;;;;3.96;80.74;102663.63;5098735;28;20035;-93
2022/01/20 07:32:55;;;;;;;9.57;1.73;;;;;;;3.94;80.78;102658.38;5087019;28;20031;-92
2022/01/20 07:35:20;;;;;;;13.60;1.92;;;;;;;3.95;80.23;102669.72;5083596;28;20073;-93
2022/01/20 07:37:47;;;;;;;16.90;1.88;;;;;;;3.95;80.52;102667.97;5088969;28;20062;-91
2022/01/20 07:40:13;;;;;;;13.05;2.25;;;;;;;3.96;80.36;102680.22;5104367;28;20031;-92
2022/01/20 07:42:39;;;;;;;10.98;2.67;;;;;;;3.96;79.98;102685.44;5078571;28;20047;-93
2022/01/20 07:45:05;;;;;;;13.43;2.38;;;;;;;4.01;80.49;102698.59;5083949;28;20040;-91
2022/01/20 07:47:30;;;;;;;13.88;2.10;;;;;;;3.95;80.72;102696.78;5084622;28;20510;-92
2022/01/20 07:49:55;;;;;;;14.68;1.73;;;;;;;3.92;80.23;102691.50;5083497;28;20048;-92
2022/01/20 07:52:21;;;;;;;19.20;2.20;;;;;;;3.98;80.71;102704.69;5078558;28;20097;-92
2022/01/20 07:54:46;;;;;;;9.05;2.10;;;;;;;3.96;80.32;102692.41;5081951;28;20054;-93
2022/01/20 07:57:11;;;;;;;14.05;2.92;;;;;;;3.97;80.07;102702.06;5081006;28;20027;-93
2022/01/20 07:59:37;;;;;;;13.70;1.67;;;;;;;4.08;79.84;102697.88;5083452;28;20079;-93
2022/01/20 08:02:02;;;;;;;8.93;1.77;;;;;;;3.98;78.29;102695.94;5081684;28;20555;-92
2022/01/20 08:04:28;;;;;;;14.85;1.83;;;;;;;3.98;79.44;102698.56;5085326;28;20028;-92
2022/01/20 08:06:53;;;;;;;14.52;2.30;;;;;;;4.00;79.46;102717.78;5083500;28;20038;-92
2022/01/20 08:09:18;;;;;;;11.43;1.75;;;;;;;4.00;79.50;102723.91;5083784;28;20522;-93
2022/01/20 08:11:44;;;;;;;12.63;2.20;;;;;;;4.05;79.74;102729.22;5081148;28;20456;-92
2022/01/20 08:14:10;;;;;;;15.70;2.95;;;;;;;4.05;79.94;102731.81;5081984;28;20046;-93
2022/01/20 08:16:35;;;;;;;15.23;2.80;;;;;;;4.05;79.67;102723.97;5083249;28;20065;-92
2022/01/20 08:19:00;;;;;;;10.30;2.00;;;;;;;4.06;79.60;102731.00;5085927;28;20507;-92
2022/01/20 08:21:26;;;;;;;9.15;1.67;;;;;;;4.12;79.37;102725.84;5081233;28;20493;-92
2022/01/20 08:23:51;;;;;;;6.70;1.52;;;;;;;4.13;79.13;102726.72;5082961;28;20020;-91
2022/01/20 08:26:16;;;;;;;13.73;2.53;;;;;;;4.15;79.53;102740.72;5087085;28;20112;-92
2022/01/20 08:28:42;;;;;;;15.40;3.65;;;;;;;4.13;79.42;102745.06;5084064;28;20052;-91
2022/01/20 08:31:08;;;;;;;15.65;1.92;;;;;;;4.19;79.00;102755.63;5082976;28;20027;-92
2022/01/20 08:33:33;;;;;;;9.93;2.10;;;;;;;4.19;79.36;102750.38;5078363;28;20024;-91
2022/01/20 08:36:01;;;;;;;11.98;1.92;;;;;;;4.16;78.90;102750.34;5084252;28;20034;-92
2022/01/20 08:38:27;;;;;;;8.55;1.65;;;;;;;4.26;77.75;102760.13;5083920;28;20034;-91
2022/01/20 08:40:52;;;;;;;9.43;1.75;;;;;;;4.32;78.38;102754.97;5077771;28;20568;-91
2022/01/20 08:43:18;;;;;;;13.50;2.42;;;;;;;4.23;80.21;102749.59;5075827;28;20051;-91
2022/01/20 08:45:44;;;;;;;6.82;1.55;;;;;;;4.25;79.44;102754.00;5083773;28;20507;-93
2022/01/20 08:48:12;;;;;;;14.88;2.70;;;;;;;4.19;79.96;102748.63;5085686;28;20468;-92
2022/01/20 08:50:38;;;;;;;14.10;3.10;;;;;;;4.31;78.84;102761.94;5084888;28;20032;-92
2022/01/20 08:53:04;;;;;;;10.70;1.95;;;;;;;4.38;78.33;102767.28;5083084;28;20058;-91
2022/01/20 08:55:30;;;;;;;10.82;1.85;;;;;;;4.30;78.35;102765.44;5082513;28;20020;-91
2022/01/20 08:57:57;;;;;;;8.85;1.67;;;;;;;4.35;79.26;102782.09;5082756;28;20381;-92
2022/01/20 09:00:26;;;;;;;8.65;2.38;;;;;;;4.41;79.63;102777.81;5079115;28;20039;-91
2022/01/20 09:02:51;;;;;;;13.60;1.90;;;;;;;4.44;79.48;102788.34;5083971;28;20027;-92
2022/01/20 09:05:17;;;;;;;19.20;3.05;;;;;;;4.51;79.89;102783.22;5084050;28;20043;-91
2022/01/20 09:07:42;;;;;;;14.60;2.17;;;;;;;4.59;79.75;102789.47;5083214;28;20497;-93
2022/01/20 09:10:08;;;;;;;10.85;1.95;;;;;;;4.61;79.59;102785.13;5080576;28;20024;-92
2022/01/20 09:17:47;;;;;;;15.15;2.22;;;;;;;4.66;78.92;102797.41;5082376;28;20096;-92
2022/01/20 09:20:12;;;;;;;13.00;2.00;;;;;;;4.64;78.27;102799.13;5083170;28;20459;-91
2022/01/20 09:22:38;;;;;;;12.18;1.90;;;;;;;4.73;77.83;102804.53;5073794;28;20050;-91
2022/01/20 09:25:06;;;;;;;7.70;1.63;;;;;;;4.72;78.72;102808.00;5080830;28;20020;-91
2022/01/20 09:27:31;;;;;;;11.65;1.63;;;;;;;4.71;79.33;102800.97;5086189;28;20063;-90
2022/01/20 09:30:04;;;;;;;8.30;1.60;;;;;;;4.70;79.05;102796.59;5083076;28;20067;-90
2022/01/20 09:32:32;;;;;;;8.70;1.10;;;;;;;4.66;77.98;102787.81;5099194;28;20036;-91
2022/01/20 09:34:57;;;;;;;9.90;1.25;;;;;;;4.51;78.78;102791.06;5087127;28;20256;-93
2022/01/20 09:37:23;;;;;;;15.02;2.13;;;;;;;4.45;78.91;102804.06;5086221;28;20058;-92
2022/01/20 09:39:49;;;;;;;12.13;1.70;;;;;;;4.81;78.65;102806.41;5084748;28;20028;-90
2022/01/20 09:42:16;;;;;;;19.00;2.90;;;;;;;6.01;79.92;102786.94;5085990;28;20020;-91
2022/01/20 09:44:45;;;;;;;8.35;1.48;;;;;;;7.58;75.87;102795.91;5107257;28;20545;-91
2022/01/20 09:47:12;;;;;;;7.72;1.90;;;;;;;8.82;73.19;102796.09;5106181;28;20505;-90
2022/01/20 09:49:38;;;;;;;9.77;2.10;;;;;;;9.96;69.99;102794.75;5108556;28;20051;-92
2022/01/20 09:52:04;;;;;;;6.88;1.70;;;;;;;10.57;67.18;102796.09;5090148;28;20062;-92
2022/01/20 09:54:31;;;;;;;9.93;1.50;;;;;;;10.42;66.53;102799.75;5086714;28;20034;-93
2022/01/20 09:56:57;;;;;;;9.45;1.65;;;;;;;10.86;64.35;102810.81;5108804;28;20072;-91
2022/01/20 09:59:23;;;;;;;8.98;1.60;;;;;;;10.30;64.28;102813.06;5091362;28;20393;-90
2022/01/20 10:01:50;;;;;;;20.70;1.92;;;;;;;9.60;64.56;102816.94;5089693;28;20035;-92
2022/01/20 10:04:33;;;;;;;10.90;2.20;;;;;;;8.97;69.49;102844.44;5093080;28;20258;-91
2022/01/20 10:07:04;;;;;;;16.58;2.47;;;;;;;8.31;68.36;102842.63;5107204;28;20035;-91
2022/01/20 10:09:39;;;;;;;10.00;1.58;;;;;;;8.53;68.73;102847.94;5108673;28;20737;-92
2022/01/20 10:12:06;;;;;;;12.05;1.77;;;;;;;9.84;68.39;102857.34;5107272;28;20022;-91
2022/01/20 10:14:41;;;;;;;10.57;2.08;;;;;;;10.99;67.03;102853.03;5087504;28;20523;-91
2022/01/20 10:17:21;;;;;;;12.82;2.90;;;;;;;11.62;65.43;102846.19;5087471;28;20081;-93
2022/01/20 10:19:50;;;;;;;10.82;2.00;;;;;;;12.35;61.93;102846.94;5087474;28;20080;-92
2022/01/20 10:22:21;;;;;;;12.25;2.00;;;;;;;12.76;58.54;102848.94;5104728;28;20378;-91
2022/01/20 10:25:04;;;;;;;8.45;1.88;;;;;;;13.66;58.23;102860.56;5106254;28;20023;-92
2022/01/20 10:27:33;;;;;;;12.05;2.33;;;;;;;13.83;55.11;102854.88;5087894;28;20053;-92
2022/01/20 10:30:01;;;;;;;8.65;2.28;;;;;;;13.74;54.46;102858.59;5105912;28;20028;-91
2022/01/20 10:32:27;;;;;;;8.80;1.70;;;;;;;13.69;55.03;102859.59;5088029;28;20023;-91
2022/01/20 10:35:05;;;;;;;5.03;1.40;;;;;;;14.45;55.31;102865.84;5089085;28;20034;-92
2022/01/20 10:37:31;;;;;;;10.45;2.05;;;;;;;14.22;51.02;102868.19;5104944;28;20055;-92
2022/01/20 10:40:09;;;;;;;6.63;1.50;;;;;;;14.24;55.02;102872.56;5093673;28;20726;-91
2022/01/20 10:42:38;;;;;;;10.05;2.00;;;;;;;14.77;50.58;102861.56;5088869;28;20042;-92
2022/01/20 10:45:04;;;;;;;6.68;1.55;;;;;;;14.24;50.67;102864.59;5105163;28;20447;-91
2022/01/20 10:47:32;;;;;;;7.78;1.38;;;;;;;13.14;50.71;102884.56;5088662;28;20032;-92
2022/01/20 10:50:14;;;;;;;10.40;1.80;;;;;;;11.77;54.12;102885.72;5088366;28;20092;-93
2022/01/20 10:52:44;;;;;;;9.95;2.20;;;;;;;10.80;54.12;102880.56;5085009;28;20118;-91
2022/01/20 10:55:38;;;;;;;8.80;1.52;;;;;;;10.01;57.24;102894.25;5084361;28;20390;-92
2022/01/20 10:58:17;;;;;;;5.47;1.50;;;;;;;9.18;59.57;102889.25;5064897;28;20032;-93
2022/01/20 11:00:48;;;;;;;12.43;1.80;;;;;;;8.68;60.18;102880.50;5088063;28;20114;-93
2022/01/20 11:03:15;;;;;;;8.23;1.40;;;;;;;8.48;60.26;102866.41;5105698;28;20032;-93
2022/01/20 11:05:41;;;;;;;15.50;2.10;;;;;;;8.39;62.52;102871.66;5085081;28;20804;-92
2022/01/20 11:08:07;;;;;;;5.68;1.88;;;;;;;8.48;61.65;102881.34;5105347;28;20032;-94
2022/01/20 11:10:33;;;;;;;11.57;2.03;;;;;;;8.66;62.66;102876.09;5086105;28;20529;-92
2022/01/20 11:12:58;;;;;;;12.07;1.98;;;;;;;8.75;60.92;102872.56;5090360;28;20036;-92
2022/01/20 11:15:26;;;;;;;8.60;1.65;;;;;;;8.45;60.66;102873.44;5104170;28;20106;-92
2022/01/20 11:17:56;;;;;;;10.05;1.83;;;;;;;8.15;62.21;102883.88;5088087;28;20518;-93
2022/01/20 11:20:25;;;;;;;8.55;1.77;;;;;;;7.82;64.96;102895.16;5105838;28;20050;-92
2022/01/20 11:23:04;;;;;;;12.93;2.20;;;;;;;7.71;64.51;102896.88;5095114;28;20027;-92
2022/01/20 11:25:35;;;;;;;10.52;1.80;;;;;;;7.44;63.78;102873.94;5085573;28;20106;-92
2022/01/20 11:28:03;;;;;;;9.93;1.77;;;;;;;7.62;64.93;102884.56;5089838;28;20047;-92
2022/01/20 11:30:29;;;;;;;11.02;1.42;;;;;;;9.14;65.35;102871.69;5104137;28;20747;-91
2022/01/20 11:33:18;;;;;;;13.88;1.92;;;;;;;11.40;62.08;102880.84;5086123;28;20231;-92
2022/01/20 11:35:54;;;;;;;9.77;1.70;;;;;;;10.82;56.40;102875.22;5087747;28;20030;-93
2022/01/20 11:38:22;;;;;;;7.88;1.98;;;;;;;10.05;56.98;102862.53;5086787;28;20542;-92
2022/01/20 11:40:53;;;;;;;9.73;1.80;;;;;;;9.82;59.35;102869.69;5088041;28;20471;-93
2022/01/20 11:43:30;;;;;;;8.32;1.88;;;;;;;9.71;59.72;102865.34;5087346;28;20503;-93
2022/01/20 11:46:06;;;;;;;9.00;2.03;;;;;;;9.35;59.60;102861.06;5087223;28;20165;-93
2022/01/20 11:48:32;;;;;;;11.10;2.08;;;;;;;9.09;58.54;102865.50;5086946;28;20297;-92
2022/01/20 11:51:06;;;;;;;9.88;1.88;;;;;;;8.74;59.57;102857.63;5083481;28;20084;-92
2022/01/20 11:53:32;;;;;;;13.75;2.25;;;;;;;8.40;58.22;102852.34;5085163;28;20028;-93
2022/01/20 11:55:58;;;;;;;12.40;1.80;;;;;;;8.17;57.37;102852.28;5085871;28;20034;-92
2022/01/20 11:58:25;;;;;;;12.45;1.70;;;;;;;7.96;58.42;102866.25;5085977;28;20022;-91
2022/01/20 12:01:05;;;;;;;10.70;2.20;;;;;;;8.18;60.12;102870.72;5080780;28;20034;-92
2022/01/20 12:03:33;;;;;;;11.27;1.63;;;;;;;8.80;58.13;102879.59;5103482;28;20051;-93
2022/01/20 12:06:09;;;;;;;9.43;2.70;;;;;;;9.38;56.60;102865.47;5089412;28;20024;-92
2022/01/20 12:08:34;;;;;;;8.52;1.60;;;;;;;9.84;55.51;102870.56;5083540;28;20023;-91
2022/01/20 12:11:04;;;;;;;6.50;2.22;;;;;;;11.45;52.79;102860.50;5084963;28;20386;-93
2022/01/20 12:13:30;;;;;;;9.27;1.67;;;;;;;12.40;49.35;102853.06;5085189;28;20035;-92
2022/01/20 12:16:01;;;;;;;3.95;1.05;;;;;;;11.77;46.52;102831.84;5086833;28;20028;-93
2022/01/20 12:33:59;;;;;;;7.65;1.48;;;;;;;8.65;48.41;102847.97;6145961;22;4121921;-92
2022/01/20 12:36:24;;;;;;;7.20;1.52;;;;;;;8.38;49.52;102840.91;6278411;22;20035;-92
2022/01/20 12:38:53;;;;;;;10.10;1.55;;;;;;;8.21;50.52;102853.13;6277561;22;20082;-91
2022/01/20 12:41:22;;;;;;;6.30;1.17;;;;;;;8.14;52.00;102844.34;6277847;22;20007;-91
2022/01/20 12:43:59;;;;;;;10.80;1.50;;;;;;;7.96;52.64;102845.19;6277904;22;19999;-92
2022/01/20 12:46:29;;;;;;;5.68;1.27;;;;;;;7.98;52.37;102843.44;6250701;22;20003;-91
2022/01/20 12:48:57;;;;;;;5.05;1.20;;;;;;;8.00;51.64;102852.22;6274641;22;20416;-91